sensor_id;sensor_type;location;lat;lon;timestamp;P1;durP1;ratioP1;P2;durP2;ratioP2
9034;SDS011;4552;43.422;24.592;2023-10-13T00:01:33;3.93;;;2.30;;
9034;SDS011;4552;43.422;24.592;2023-10-13T00:04:00;2.63;;;2.40;;
9034;SDS011;4552;43.422;24.592;2023-10-13T00:06:30;4.03;;;2.63;;
9034;SDS011;4552;43.422;24.592;2023-10-13T00:08:57;3.70;;;2.60;;
9034;SDS011;4552;43.422;24.592;2023-10-13T00:11:24;3.87;;;2.77;;
9034;SDS011;4552;43.422;24.592;2023-10-13T00:23:58;4.03;;;2.80;;
9034;SDS011;4552;43.422;24.592;2023-10-13T00:26:28;2.80;;;2.60;;
9034;SDS011;4552;43.422;24.592;2023-10-13T00:35:42;3.70;;;2.73;;
9034;SDS011;4552;43.422;24.592;2023-10-13T00:38:09;7.40;;;2.50;;
9034;SDS011;4552;43.422;24.592;2023-10-13T00:40:43;2.50;;;2.30;;
9034;SDS011;4552;43.422;24.592;2023-10-13T00:53:28;4.33;;;2.60;;
9034;SDS011;4552;43.422;24.592;2023-10-13T00:56:00;3.90;;;3.07;;
9034;SDS011;4552;43.422;24.592;2023-10-13T00:58:32;3.33;;;2.93;;
9034;SDS011;4552;43.422;24.592;2023-10-13T01:00:59;3.83;;;3.10;;
9034;SDS011;4552;43.422;24.592;2023-10-13T01:03:41;5.83;;;3.20;;
9034;SDS011;4552;43.422;24.592;2023-10-13T01:06:09;3.87;;;2.90;;
9034;SDS011;4552;43.422;24.592;2023-10-13T01:08:37;3.47;;;3.03;;
9034;SDS011;4552;43.422;24.592;2023-10-13T01:11:05;3.43;;;3.00;;
9034;SDS011;4552;43.422;24.592;2023-10-13T01:20:16;5.40;;;3.70;;
9034;SDS011;4552;43.422;24.592;2023-10-13T01:22:50;5.13;;;3.70;;
9034;SDS011;4552;43.422;24.592;2023-10-13T01:25:22;3.83;;;3.20;;
9034;SDS011;4552;43.422;24.592;2023-10-13T01:27:53;5.93;;;3.60;;
9034;SDS011;4552;43.422;24.592;2023-10-13T01:43:49;4.13;;;3.37;;
9034;SDS011;4552;43.422;24.592;2023-10-13T01:46:15;5.07;;;3.60;;
9034;SDS011;4552;43.422;24.592;2023-10-13T01:48:47;5.17;;;3.70;;
9034;SDS011;4552;43.422;24.592;2023-10-13T01:51:13;6.77;;;4.00;;
9034;SDS011;4552;43.422;24.592;2023-10-13T01:53:40;4.83;;;3.53;;
9034;SDS011;4552;43.422;24.592;2023-10-13T01:56:07;3.80;;;3.40;;
9034;SDS011;4552;43.422;24.592;2023-10-13T01:58:39;5.10;;;3.37;;
9034;SDS011;4552;43.422;24.592;2023-10-13T02:01:14;4.47;;;3.80;;
9034;SDS011;4552;43.422;24.592;2023-10-13T02:03:51;5.00;;;3.80;;
9034;SDS011;4552;43.422;24.592;2023-10-13T02:06:26;6.23;;;3.67;;
9034;SDS011;4552;43.422;24.592;2023-10-13T02:08:57;5.20;;;3.33;;
9034;SDS011;4552;43.422;24.592;2023-10-13T02:11:29;4.70;;;3.73;;
9034;SDS011;4552;43.422;24.592;2023-10-13T02:13:56;4.20;;;3.47;;
9034;SDS011;4552;43.422;24.592;2023-10-13T02:16:24;4.00;;;3.53;;
9034;SDS011;4552;43.422;24.592;2023-10-13T02:18:51;4.17;;;3.20;;
9034;SDS011;4552;43.422;24.592;2023-10-13T02:21:17;4.93;;;3.80;;
9034;SDS011;4552;43.422;24.592;2023-10-13T02:23:44;5.47;;;4.27;;
9034;SDS011;4552;43.422;24.592;2023-10-13T02:26:10;3.97;;;3.13;;
9034;SDS011;4552;43.422;24.592;2023-10-13T02:39:15;5.03;;;3.50;;
9034;SDS011;4552;43.422;24.592;2023-10-13T02:41:41;4.87;;;3.20;;
9034;SDS011;4552;43.422;24.592;2023-10-13T02:44:13;4.40;;;2.83;;
9034;SDS011;4552;43.422;24.592;2023-10-13T02:46:52;6.40;;;3.33;;
9034;SDS011;4552;43.422;24.592;2023-10-13T02:49:21;3.23;;;2.93;;
9034;SDS011;4552;43.422;24.592;2023-10-13T02:51:46;4.40;;;3.20;;
9034;SDS011;4552;43.422;24.592;2023-10-13T02:54:15;4.57;;;3.33;;
9034;SDS011;4552;43.422;24.592;2023-10-13T02:56:43;3.30;;;2.97;;
9034;SDS011;4552;43.422;24.592;2023-10-13T02:59:15;6.50;;;3.57;;
9034;SDS011;4552;43.422;24.592;2023-10-13T03:01:45;3.93;;;3.33;;
9034;SDS011;4552;43.422;24.592;2023-10-13T03:04:12;3.20;;;2.90;;
9034;SDS011;4552;43.422;24.592;2023-10-13T03:06:38;9.43;;;4.00;;
9034;SDS011;4552;43.422;24.592;2023-10-13T03:09:07;4.03;;;3.17;;
9034;SDS011;4552;43.422;24.592;2023-10-13T03:11:41;6.83;;;3.43;;
9034;SDS011;4552;43.422;24.592;2023-10-13T03:14:14;5.23;;;3.33;;
9034;SDS011;4552;43.422;24.592;2023-10-13T03:16:49;3.90;;;3.23;;
9034;SDS011;4552;43.422;24.592;2023-10-13T03:19:17;4.53;;;3.57;;
9034;SDS011;4552;43.422;24.592;2023-10-13T03:21:44;4.13;;;3.33;;
9034;SDS011;4552;43.422;24.592;2023-10-13T03:24:20;4.27;;;3.63;;
9034;SDS011;4552;43.422;24.592;2023-10-13T03:26:49;5.27;;;3.67;;
9034;SDS011;4552;43.422;24.592;2023-10-13T03:29:17;3.67;;;3.37;;
9034;SDS011;4552;43.422;24.592;2023-10-13T03:31:47;6.60;;;3.28;;
9034;SDS011;4552;43.422;24.592;2023-10-13T03:34:28;3.37;;;2.87;;
9034;SDS011;4552;43.422;24.592;2023-10-13T03:36:55;3.50;;;3.20;;
9034;SDS011;4552;43.422;24.592;2023-10-13T03:39:23;4.60;;;3.20;;
9034;SDS011;4552;43.422;24.592;2023-10-13T03:41:56;4.17;;;3.30;;
9034;SDS011;4552;43.422;24.592;2023-10-13T03:44:24;4.07;;;3.13;;
9034;SDS011;4552;43.422;24.592;2023-10-13T03:46:55;4.83;;;3.03;;
9034;SDS011;4552;43.422;24.592;2023-10-13T03:49:30;18.80;;;11.97;;
9034;SDS011;4552;43.422;24.592;2023-10-13T03:52:02;18.87;;;12.00;;
9034;SDS011;4552;43.422;24.592;2023-10-13T03:54:31;13.30;;;7.80;;
9034;SDS011;4552;43.422;24.592;2023-10-13T03:57:02;10.27;;;6.73;;
9034;SDS011;4552;43.422;24.592;2023-10-13T04:06:19;4.80;;;3.07;;
9034;SDS011;4552;43.422;24.592;2023-10-13T04:09:07;6.40;;;3.53;;
9034;SDS011;4552;43.422;24.592;2023-10-13T04:11:51;4.70;;;3.43;;
9034;SDS011;4552;43.422;24.592;2023-10-13T04:24:41;5.70;;;2.90;;
9034;SDS011;4552;43.422;24.592;2023-10-13T04:27:47;6.10;;;2.90;;
9034;SDS011;4552;43.422;24.592;2023-10-13T04:33:41;3.83;;;2.90;;
9034;SDS011;4552;43.422;24.592;2023-10-13T04:36:18;5.60;;;3.07;;
9034;SDS011;4552;43.422;24.592;2023-10-13T04:39:01;4.00;;;2.70;;
9034;SDS011;4552;43.422;24.592;2023-10-13T04:41:37;3.70;;;2.73;;
9034;SDS011;4552;43.422;24.592;2023-10-13T04:44:05;5.30;;;3.20;;
9034;SDS011;4552;43.422;24.592;2023-10-13T04:46:46;4.23;;;3.23;;
9034;SDS011;4552;43.422;24.592;2023-10-13T04:49:27;4.30;;;3.30;;
9034;SDS011;4552;43.422;24.592;2023-10-13T04:52:01;5.37;;;3.77;;
9034;SDS011;4552;43.422;24.592;2023-10-13T04:54:38;4.20;;;3.00;;
9034;SDS011;4552;43.422;24.592;2023-10-13T04:57:17;3.53;;;3.00;;
9034;SDS011;4552;43.422;24.592;2023-10-13T04:59:49;4.60;;;3.03;;
9034;SDS011;4552;43.422;24.592;2023-10-13T05:02:34;4.23;;;3.10;;
9034;SDS011;4552;43.422;24.592;2023-10-13T05:05:20;4.03;;;3.20;;
9034;SDS011;4552;43.422;24.592;2023-10-13T05:08:10;3.83;;;3.10;;
9034;SDS011;4552;43.422;24.592;2023-10-13T05:10:55;3.73;;;3.07;;
9034;SDS011;4552;43.422;24.592;2023-10-13T05:23:46;7.23;;;3.73;;
9034;SDS011;4552;43.422;24.592;2023-10-13T05:26:30;6.93;;;3.83;;
9034;SDS011;4552;43.422;24.592;2023-10-13T05:35:54;6.67;;;4.60;;
9034;SDS011;4552;43.422;24.592;2023-10-13T05:38:38;11.43;;;4.20;;
9034;SDS011;4552;43.422;24.592;2023-10-13T05:41:24;6.33;;;4.50;;
9034;SDS011;4552;43.422;24.592;2023-10-13T05:44:08;8.67;;;4.73;;
9034;SDS011;4552;43.422;24.592;2023-10-13T05:46:53;11.23;;;5.37;;
9034;SDS011;4552;43.422;24.592;2023-10-13T05:49:59;7.17;;;4.63;;
9034;SDS011;4552;43.422;24.592;2023-10-13T05:52:30;16.03;;;5.80;;
9034;SDS011;4552;43.422;24.592;2023-10-13T05:55:15;11.40;;;5.13;;
9034;SDS011;4552;43.422;24.592;2023-10-13T05:58:01;10.73;;;5.80;;
9034;SDS011;4552;43.422;24.592;2023-10-13T06:04:06;9.27;;;5.00;;
9034;SDS011;4552;43.422;24.592;2023-10-13T06:06:51;8.43;;;4.70;;
9034;SDS011;4552;43.422;24.592;2023-10-13T06:09:38;8.50;;;4.73;;
9034;SDS011;4552;43.422;24.592;2023-10-13T06:12:22;5.53;;;4.63;;
9034;SDS011;4552;43.422;24.592;2023-10-13T06:21:51;7.53;;;4.80;;
9034;SDS011;4552;43.422;24.592;2023-10-13T06:24:35;6.33;;;4.90;;
9034;SDS011;4552;43.422;24.592;2023-10-13T06:27:20;11.00;;;5.13;;
9034;SDS011;4552;43.422;24.592;2023-10-13T06:56:52;7.67;;;5.30;;
9034;SDS011;4552;43.422;24.592;2023-10-13T06:59:19;10.63;;;4.80;;
9034;SDS011;4552;43.422;24.592;2023-10-13T07:01:51;7.50;;;5.17;;
9034;SDS011;4552;43.422;24.592;2023-10-13T07:04:18;6.57;;;4.73;;
9034;SDS011;4552;43.422;24.592;2023-10-13T07:06:47;8.60;;;5.10;;
9034;SDS011;4552;43.422;24.592;2023-10-13T07:09:15;9.63;;;4.33;;
9034;SDS011;4552;43.422;24.592;2023-10-13T07:12:06;8.60;;;5.27;;
9034;SDS011;4552;43.422;24.592;2023-10-13T07:14:45;19.50;;;5.23;;
9034;SDS011;4552;43.422;24.592;2023-10-13T07:17:16;5.73;;;4.03;;
9034;SDS011;4552;43.422;24.592;2023-10-13T07:19:49;8.23;;;4.43;;
9034;SDS011;4552;43.422;24.592;2023-10-13T07:22:20;5.93;;;4.30;;
9034;SDS011;4552;43.422;24.592;2023-10-13T07:24:47;6.47;;;4.40;;
9034;SDS011;4552;43.422;24.592;2023-10-13T07:27:16;12.40;;;4.70;;
9034;SDS011;4552;43.422;24.592;2023-10-13T08:06:29;10.37;;;5.37;;
9034;SDS011;4552;43.422;24.592;2023-10-13T08:08:59;7.83;;;3.73;;
9034;SDS011;4552;43.422;24.592;2023-10-13T08:11:53;12.53;;;9.80;;
9034;SDS011;4552;43.422;24.592;2023-10-13T08:14:21;5.73;;;4.17;;
9034;SDS011;4552;43.422;24.592;2023-10-13T08:16:49;9.70;;;4.70;;
9034;SDS011;4552;43.422;24.592;2023-10-13T08:19:26;11.50;;;2.93;;
9034;SDS011;4552;43.422;24.592;2023-10-13T08:21:58;5.97;;;3.30;;
9034;SDS011;4552;43.422;24.592;2023-10-13T08:24:41;4.67;;;3.17;;
9034;SDS011;4552;43.422;24.592;2023-10-13T08:27:22;3.88;;;3.15;;
9034;SDS011;4552;43.422;24.592;2023-10-13T08:41:20;2.80;;;2.27;;
9034;SDS011;4552;43.422;24.592;2023-10-13T08:44:00;4.33;;;2.80;;
9034;SDS011;4552;43.422;24.592;2023-10-13T09:06:42;3.67;;;2.60;;
9034;SDS011;4552;43.422;24.592;2023-10-13T09:09:12;2.50;;;1.93;;
9034;SDS011;4552;43.422;24.592;2023-10-13T09:12:10;5.77;;;2.80;;
9034;SDS011;4552;43.422;24.592;2023-10-13T09:14:38;3.13;;;2.33;;
9034;SDS011;4552;43.422;24.592;2023-10-13T09:17:09;2.63;;;2.10;;
9034;SDS011;4552;43.422;24.592;2023-10-13T09:19:47;4.73;;;3.00;;
9034;SDS011;4552;43.422;24.592;2023-10-13T09:22:22;2.37;;;2.10;;
9034;SDS011;4552;43.422;24.592;2023-10-13T09:24:55;2.87;;;2.20;;
9034;SDS011;4552;43.422;24.592;2023-10-13T09:27:24;3.30;;;2.37;;
9034;SDS011;4552;43.422;24.592;2023-10-13T09:36:36;3.30;;;2.27;;
9034;SDS011;4552;43.422;24.592;2023-10-13T09:39:05;3.67;;;2.70;;
9034;SDS011;4552;43.422;24.592;2023-10-13T09:41:56;3.93;;;2.80;;
9034;SDS011;4552;43.422;24.592;2023-10-13T09:44:24;6.67;;;4.77;;
9034;SDS011;4552;43.422;24.592;2023-10-13T09:46:55;6.67;;;4.67;;
9034;SDS011;4552;43.422;24.592;2023-10-13T09:49:34;5.00;;;2.63;;
9034;SDS011;4552;43.422;24.592;2023-10-13T09:52:10;24.63;;;18.23;;
9034;SDS011;4552;43.422;24.592;2023-10-13T09:54:46;12.80;;;11.90;;
9034;SDS011;4552;43.422;24.592;2023-10-13T09:57:34;16.70;;;15.50;;
9034;SDS011;4552;43.422;24.592;2023-10-13T10:03:47;14.30;;;13.20;;
9034;SDS011;4552;43.422;24.592;2023-10-13T10:06:22;16.33;;;15.23;;
9034;SDS011;4552;43.422;24.592;2023-10-13T10:09:05;13.80;;;12.90;;
9034;SDS011;4552;43.422;24.592;2023-10-13T10:17:53;11.27;;;10.57;;
9034;SDS011;4552;43.422;24.592;2023-10-13T10:20:36;9.97;;;9.10;;
9034;SDS011;4552;43.422;24.592;2023-10-13T10:23:07;2.93;;;2.40;;
9034;SDS011;4552;43.422;24.592;2023-10-13T10:25:48;3.63;;;2.53;;
9034;SDS011;4552;43.422;24.592;2023-10-13T10:28:24;4.40;;;2.80;;
9034;SDS011;4552;43.422;24.592;2023-10-13T10:31:07;3.53;;;2.60;;
9034;SDS011;4552;43.422;24.592;2023-10-13T10:33:42;3.93;;;2.40;;
9034;SDS011;4552;43.422;24.592;2023-10-13T10:36:10;3.30;;;2.40;;
9034;SDS011;4552;43.422;24.592;2023-10-13T10:38:51;3.53;;;2.80;;
9034;SDS011;4552;43.422;24.592;2023-10-13T10:41:27;3.87;;;2.57;;
9034;SDS011;4552;43.422;24.592;2023-10-13T10:44:09;4.93;;;2.50;;
9034;SDS011;4552;43.422;24.592;2023-10-13T10:53:25;14.30;;;13.37;;
9034;SDS011;4552;43.422;24.592;2023-10-13T10:56:06;10.27;;;9.63;;
9034;SDS011;4552;43.422;24.592;2023-10-13T10:58:44;8.67;;;7.97;;
9034;SDS011;4552;43.422;24.592;2023-10-13T11:04:33;7.37;;;3.40;;
9034;SDS011;4552;43.422;24.592;2023-10-13T11:07:00;9.53;;;8.73;;
9034;SDS011;4552;43.422;24.592;2023-10-13T11:09:30;8.80;;;7.87;;
9034;SDS011;4552;43.422;24.592;2023-10-13T11:12:10;8.40;;;7.07;;
9034;SDS011;4552;43.422;24.592;2023-10-13T11:14:41;4.70;;;4.30;;
9034;SDS011;4552;43.422;24.592;2023-10-13T11:17:17;5.63;;;5.23;;
9034;SDS011;4552;43.422;24.592;2023-10-13T11:20:07;5.33;;;4.83;;
9034;SDS011;4552;43.422;24.592;2023-10-13T11:22:51;5.13;;;4.73;;
9034;SDS011;4552;43.422;24.592;2023-10-13T11:25:23;6.23;;;5.73;;
9034;SDS011;4552;43.422;24.592;2023-10-13T11:28:09;6.27;;;3.50;;
9034;SDS011;4552;43.422;24.592;2023-10-13T11:34:10;4.70;;;2.90;;
9034;SDS011;4552;43.422;24.592;2023-10-13T11:36:50;4.60;;;2.60;;
9034;SDS011;4552;43.422;24.592;2023-10-13T11:39:18;4.73;;;2.70;;
9034;SDS011;4552;43.422;24.592;2023-10-13T11:41:51;3.63;;;2.33;;
9034;SDS011;4552;43.422;24.592;2023-10-13T11:44:20;3.07;;;2.30;;
9034;SDS011;4552;43.422;24.592;2023-10-13T11:47:04;4.30;;;2.83;;
9034;SDS011;4552;43.422;24.592;2023-10-13T11:49:58;4.07;;;2.63;;
9034;SDS011;4552;43.422;24.592;2023-10-13T11:52:52;2.83;;;2.53;;
9034;SDS011;4552;43.422;24.592;2023-10-13T11:55:21;3.50;;;2.40;;
9034;SDS011;4552;43.422;24.592;2023-10-13T11:57:50;3.40;;;2.53;;
9034;SDS011;4552;43.422;24.592;2023-10-13T12:23:53;6.70;;;2.93;;
9034;SDS011;4552;43.422;24.592;2023-10-13T12:26:43;9.73;;;2.87;;
9034;SDS011;4552;43.422;24.592;2023-10-13T12:29:11;3.67;;;2.67;;
9034;SDS011;4552;43.422;24.592;2023-10-13T12:45:07;7.90;;;3.03;;
9034;SDS011;4552;43.422;24.592;2023-10-13T12:47:51;2.70;;;2.50;;
9034;SDS011;4552;43.422;24.592;2023-10-13T12:50:50;4.90;;;2.63;;
9034;SDS011;4552;43.422;24.592;2023-10-13T12:53:33;4.03;;;2.77;;
9034;SDS011;4552;43.422;24.592;2023-10-13T12:59:07;7.20;;;3.60;;
9034;SDS011;4552;43.422;24.592;2023-10-13T13:01:38;8.97;;;2.90;;
9034;SDS011;4552;43.422;24.592;2023-10-13T13:04:08;6.60;;;3.00;;
9034;SDS011;4552;43.422;24.592;2023-10-13T13:06:47;4.50;;;2.97;;
9034;SDS011;4552;43.422;24.592;2023-10-13T13:15:18;4.17;;;3.03;;
9034;SDS011;4552;43.422;24.592;2023-10-13T13:17:49;4.33;;;2.60;;
9034;SDS011;4552;43.422;24.592;2023-10-13T13:20:25;9.97;;;3.23;;
9034;SDS011;4552;43.422;24.592;2023-10-13T13:22:54;5.57;;;3.00;;
9034;SDS011;4552;43.422;24.592;2023-10-13T13:25:28;22.83;;;15.47;;
9034;SDS011;4552;43.422;24.592;2023-10-13T13:27:58;57.73;;;37.37;;
9034;SDS011;4552;43.422;24.592;2023-10-13T13:36:54;5.22;;;3.08;;
9034;SDS011;4552;43.422;24.592;2023-10-13T13:39:21;5.93;;;3.00;;
9034;SDS011;4552;43.422;24.592;2023-10-13T13:41:55;3.97;;;2.77;;
9034;SDS011;4552;43.422;24.592;2023-10-13T13:44:22;5.13;;;2.87;;
9034;SDS011;4552;43.422;24.592;2023-10-13T13:46:55;7.47;;;3.57;;
9034;SDS011;4552;43.422;24.592;2023-10-13T13:49:23;4.90;;;3.13;;
9034;SDS011;4552;43.422;24.592;2023-10-13T13:51:57;7.03;;;3.30;;
9034;SDS011;4552;43.422;24.592;2023-10-13T13:54:29;3.60;;;3.23;;
9034;SDS011;4552;43.422;24.592;2023-10-13T13:56:59;12.20;;;6.33;;
9034;SDS011;4552;43.422;24.592;2023-10-13T13:59:26;5.00;;;3.20;;
9034;SDS011;4552;43.422;24.592;2023-10-13T14:01:59;4.53;;;2.53;;
9034;SDS011;4552;43.422;24.592;2023-10-13T14:04:31;6.50;;;2.70;;
9034;SDS011;4552;43.422;24.592;2023-10-13T14:07:00;6.70;;;2.50;;
9034;SDS011;4552;43.422;24.592;2023-10-13T14:09:31;6.37;;;2.83;;
9034;SDS011;4552;43.422;24.592;2023-10-13T14:12:01;5.13;;;2.53;;
9034;SDS011;4552;43.422;24.592;2023-10-13T14:14:47;6.33;;;3.63;;
9034;SDS011;4552;43.422;24.592;2023-10-13T14:17:16;3.67;;;2.80;;
9034;SDS011;4552;43.422;24.592;2023-10-13T14:19:56;5.33;;;2.90;;
9034;SDS011;4552;43.422;24.592;2023-10-13T14:22:25;4.47;;;2.87;;
9034;SDS011;4552;43.422;24.592;2023-10-13T14:24:55;5.80;;;3.10;;
9034;SDS011;4552;43.422;24.592;2023-10-13T14:27:23;4.57;;;3.07;;
9034;SDS011;4552;43.422;24.592;2023-10-13T14:32:48;4.20;;;2.73;;
9034;SDS011;4552;43.422;24.592;2023-10-13T14:35:15;7.87;;;3.20;;
9034;SDS011;4552;43.422;24.592;2023-10-13T14:37:44;5.43;;;3.47;;
9034;SDS011;4552;43.422;24.592;2023-10-13T14:40:11;7.97;;;3.67;;
9034;SDS011;4552;43.422;24.592;2023-10-13T14:42:40;5.30;;;3.20;;
9034;SDS011;4552;43.422;24.592;2023-10-13T14:55:13;9.43;;;4.13;;
9034;SDS011;4552;43.422;24.592;2023-10-13T14:58:03;10.60;;;3.87;;
9034;SDS011;4552;43.422;24.592;2023-10-13T15:06:54;3.90;;;3.23;;
9034;SDS011;4552;43.422;24.592;2023-10-13T15:09:24;6.77;;;3.37;;
9034;SDS011;4552;43.422;24.592;2023-10-13T15:11:55;4.83;;;3.30;;
9034;SDS011;4552;43.422;24.592;2023-10-13T15:14:22;5.57;;;3.33;;
9034;SDS011;4552;43.422;24.592;2023-10-13T15:16:51;5.27;;;3.60;;
9034;SDS011;4552;43.422;24.592;2023-10-13T15:19:18;8.30;;;3.77;;
9034;SDS011;4552;43.422;24.592;2023-10-13T15:21:45;5.27;;;3.70;;
9034;SDS011;4552;43.422;24.592;2023-10-13T15:24:20;18.67;;;8.07;;
9034;SDS011;4552;43.422;24.592;2023-10-13T15:26:52;6.47;;;3.90;;
9034;SDS011;4552;43.422;24.592;2023-10-13T15:29:28;17.70;;;9.90;;
9034;SDS011;4552;43.422;24.592;2023-10-13T16:02:15;38.63;;;29.83;;
9034;SDS011;4552;43.422;24.592;2023-10-13T16:04:49;52.83;;;40.17;;
9034;SDS011;4552;43.422;24.592;2023-10-13T16:07:25;40.10;;;26.00;;
9034;SDS011;4552;43.422;24.592;2023-10-13T16:10:01;51.83;;;35.47;;
9034;SDS011;4552;43.422;24.592;2023-10-13T16:12:36;38.83;;;26.53;;
9034;SDS011;4552;43.422;24.592;2023-10-13T16:25:41;13.03;;;5.27;;
9034;SDS011;4552;43.422;24.592;2023-10-13T16:28:20;8.00;;;5.43;;
9034;SDS011;4552;43.422;24.592;2023-10-13T16:31:10;9.57;;;5.57;;
9034;SDS011;4552;43.422;24.592;2023-10-13T16:33:53;12.57;;;5.90;;
9034;SDS011;4552;43.422;24.592;2023-10-13T16:36:24;8.67;;;5.33;;
9034;SDS011;4552;43.422;24.592;2023-10-13T16:38:53;14.13;;;6.47;;
9034;SDS011;4552;43.422;24.592;2023-10-13T16:44:10;9.17;;;5.23;;
9034;SDS011;4552;43.422;24.592;2023-10-13T16:46:39;8.70;;;5.17;;
9034;SDS011;4552;43.422;24.592;2023-10-13T16:49:20;10.03;;;6.10;;
9034;SDS011;4552;43.422;24.592;2023-10-13T16:51:51;11.27;;;5.97;;
9034;SDS011;4552;43.422;24.592;2023-10-13T16:54:38;9.93;;;5.90;;
9034;SDS011;4552;43.422;24.592;2023-10-13T16:59:55;48.67;;;27.80;;
9034;SDS011;4552;43.422;24.592;2023-10-13T17:05:57;11.47;;;6.10;;
9034;SDS011;4552;43.422;24.592;2023-10-13T17:08:34;25.73;;;14.67;;
9034;SDS011;4552;43.422;24.592;2023-10-13T17:11:08;22.73;;;19.08;;
9034;SDS011;4552;43.422;24.592;2023-10-13T17:13:38;20.80;;;19.00;;
9034;SDS011;4552;43.422;24.592;2023-10-13T17:22:50;20.13;;;18.37;;
9034;SDS011;4552;43.422;24.592;2023-10-13T17:25:22;24.30;;;22.10;;
9034;SDS011;4552;43.422;24.592;2023-10-13T17:27:50;19.43;;;17.90;;
9034;SDS011;4552;43.422;24.592;2023-10-13T18:20:49;7.23;;;4.87;;
9034;SDS011;4552;43.422;24.592;2023-10-13T18:23:40;7.47;;;4.00;;
9034;SDS011;4552;43.422;24.592;2023-10-13T18:26:23;5.97;;;4.00;;
9034;SDS011;4552;43.422;24.592;2023-10-13T18:28:53;6.73;;;4.20;;
9034;SDS011;4552;43.422;24.592;2023-10-13T18:51:32;4.60;;;3.23;;
9034;SDS011;4552;43.422;24.592;2023-10-13T18:54:00;4.90;;;3.43;;
9034;SDS011;4552;43.422;24.592;2023-10-13T18:56:28;5.80;;;3.80;;
9034;SDS011;4552;43.422;24.592;2023-10-13T18:58:59;5.33;;;3.57;;
9034;SDS011;4552;43.422;24.592;2023-10-13T19:08:16;8.60;;;4.10;;
9034;SDS011;4552;43.422;24.592;2023-10-13T19:11:01;6.13;;;3.80;;
9034;SDS011;4552;43.422;24.592;2023-10-13T19:13:41;5.27;;;3.63;;
9034;SDS011;4552;43.422;24.592;2023-10-13T19:45:15;6.87;;;4.13;;
9034;SDS011;4552;43.422;24.592;2023-10-13T19:47:44;5.47;;;3.97;;
9034;SDS011;4552;43.422;24.592;2023-10-13T19:50:11;6.03;;;4.27;;
9034;SDS011;4552;43.422;24.592;2023-10-13T19:52:39;4.90;;;4.03;;
9034;SDS011;4552;43.422;24.592;2023-10-13T19:55:07;7.67;;;4.50;;
9034;SDS011;4552;43.422;24.592;2023-10-13T19:57:45;5.67;;;4.03;;
9034;SDS011;4552;43.422;24.592;2023-10-13T20:00:17;8.13;;;3.43;;
9034;SDS011;4552;43.422;24.592;2023-10-13T20:06:23;17.57;;;4.83;;
9034;SDS011;4552;43.422;24.592;2023-10-13T20:08:51;18.30;;;6.60;;
9034;SDS011;4552;43.422;24.592;2023-10-13T20:11:20;13.77;;;5.03;;
9034;SDS011;4552;43.422;24.592;2023-10-13T20:13:50;16.70;;;4.50;;
9034;SDS011;4552;43.422;24.592;2023-10-13T20:36:34;15.30;;;13.97;;
9034;SDS011;4552;43.422;24.592;2023-10-13T20:39:01;14.57;;;13.23;;
9034;SDS011;4552;43.422;24.592;2023-10-13T20:41:31;13.73;;;12.40;;
9034;SDS011;4552;43.422;24.592;2023-10-13T21:08:15;4.78;;;3.83;;
9034;SDS011;4552;43.422;24.592;2023-10-13T21:10:54;4.43;;;3.60;;
9034;SDS011;4552;43.422;24.592;2023-10-13T21:13:40;4.43;;;3.30;;
9034;SDS011;4552;43.422;24.592;2023-10-13T21:23:04;3.83;;;3.23;;
9034;SDS011;4552;43.422;24.592;2023-10-13T21:25:45;5.80;;;4.23;;
9034;SDS011;4552;43.422;24.592;2023-10-13T21:28:12;4.60;;;3.23;;
9034;SDS011;4552;43.422;24.592;2023-10-13T21:31:04;4.47;;;3.33;;
9034;SDS011;4552;43.422;24.592;2023-10-13T21:33:43;4.90;;;3.70;;
9034;SDS011;4552;43.422;24.592;2023-10-13T21:36:10;6.07;;;3.70;;
9034;SDS011;4552;43.422;24.592;2023-10-13T21:38:56;8.57;;;4.57;;
9034;SDS011;4552;43.422;24.592;2023-10-13T21:41:24;6.00;;;3.87;;
9034;SDS011;4552;43.422;24.592;2023-10-13T21:43:54;5.90;;;3.67;;
9034;SDS011;4552;43.422;24.592;2023-10-13T21:46:50;7.73;;;3.53;;
9034;SDS011;4552;43.422;24.592;2023-10-13T21:49:17;8.63;;;3.37;;
9034;SDS011;4552;43.422;24.592;2023-10-13T21:51:58;6.70;;;3.13;;
9034;SDS011;4552;43.422;24.592;2023-10-13T21:54:27;3.70;;;2.83;;
9034;SDS011;4552;43.422;24.592;2023-10-13T21:56:54;5.80;;;3.43;;
9034;SDS011;4552;43.422;24.592;2023-10-13T21:59:21;4.83;;;3.13;;
9034;SDS011;4552;43.422;24.592;2023-10-13T22:08:01;13.77;;;3.60;;
9034;SDS011;4552;43.422;24.592;2023-10-13T22:13:28;4.73;;;3.37;;
9034;SDS011;4552;43.422;24.592;2023-10-13T22:15:57;4.50;;;2.97;;
9034;SDS011;4552;43.422;24.592;2023-10-13T22:18:30;5.80;;;3.43;;
9034;SDS011;4552;43.422;24.592;2023-10-13T22:21:00;3.77;;;3.23;;
9034;SDS011;4552;43.422;24.592;2023-10-13T22:23:27;4.77;;;3.60;;
9034;SDS011;4552;43.422;24.592;2023-10-13T22:25:56;6.83;;;4.00;;
9034;SDS011;4552;43.422;24.592;2023-10-13T22:28:39;4.77;;;3.13;;
9034;SDS011;4552;43.422;24.592;2023-10-13T22:37:51;5.67;;;4.20;;
9034;SDS011;4552;43.422;24.592;2023-10-13T22:40:18;4.30;;;3.90;;
9034;SDS011;4552;43.422;24.592;2023-10-13T22:42:48;6.77;;;3.67;;
9034;SDS011;4552;43.422;24.592;2023-10-13T22:45:18;7.50;;;4.17;;
9034;SDS011;4552;43.422;24.592;2023-10-13T22:51:09;6.30;;;4.13;;
9034;SDS011;4552;43.422;24.592;2023-10-13T22:53:36;6.03;;;4.30;;
9034;SDS011;4552;43.422;24.592;2023-10-13T22:56:03;6.03;;;4.10;;
9034;SDS011;4552;43.422;24.592;2023-10-13T22:58:32;15.80;;;4.97;;
9034;SDS011;4552;43.422;24.592;2023-10-13T23:01:00;11.80;;;5.00;;
9034;SDS011;4552;43.422;24.592;2023-10-13T23:09:44;8.10;;;4.70;;
9034;SDS011;4552;43.422;24.592;2023-10-13T23:12:15;6.47;;;4.70;;
9034;SDS011;4552;43.422;24.592;2023-10-13T23:14:45;7.97;;;4.73;;
9034;SDS011;4552;43.422;24.592;2023-10-13T23:40:51;5.80;;;4.57;;
9034;SDS011;4552;43.422;24.592;2023-10-13T23:43:20;7.80;;;4.87;;
9034;SDS011;4552;43.422;24.592;2023-10-13T23:46:10;8.27;;;5.40;;
9034;SDS011;4552;43.422;24.592;2023-10-13T23:51:59;6.63;;;4.83;;
9034;SDS011;4552;43.422;24.592;2023-10-13T23:54:27;7.57;;;4.43;;
9034;SDS011;4552;43.422;24.592;2023-10-13T23:57:05;6.33;;;4.40;;
9034;SDS011;4552;43.422;24.592;2023-10-13T23:59:32;8.27;;;4.57;;
